Time;durP1;ratioP1;P1;durP2;ratioP2;P2;SDS_P1;SDS_P2;PMS_P1;PMS_P2;Temp;Humidity;BMP_temperature;BMP_pressure;BME280_temperature;BME280_humidity;BME280_pressure;Samples;Min_cycle;Max_cycle;Signal;HPM_P1;HPM_P2
2023/03/12 00:01:17;;;;;;;2.28;2.08;;;;;;;9.07;59.40;98396.84;5161077;27;20416;-53
2023/03/12 00:03:44;;;;;;;2.27;2.07;;;;;;;9.22;54.31;98396.06;5162100;27;20220;-53
2023/03/12 00:06:11;;;;;;;1.77;1.67;;;;;;;9.30;53.29;98402.06;5162186;27;20158;-52
2023/03/12 00:08:39;;;;;;;2.10;1.90;;;;;;;9.29;52.57;98410.59;5162130;27;20152;-53
2023/03/12 00:11:09;;;;;;;1.80;1.70;;;;;;;9.37;52.15;98408.91;5161465;27;20178;-53
2023/03/12 00:13:37;;;;;;;2.47;2.10;;;;;;;9.14;54.22;98377.25;5161158;27;20392;-52
2023/03/12 00:16:06;;;;;;;2.47;2.07;;;;;;;9.25;58.09;98411.47;5162079;27;20165;-53
2023/03/12 00:18:33;;;;;;;2.47;2.28;;;;;;;9.23;59.60;98410.59;5161441;27;20453;-53
2023/03/12 00:20:59;;;;;;;2.73;2.10;;;;;;;9.06;59.79;98397.72;5161781;27;20181;-53
2023/03/12 00:23:26;;;;;;;3.37;2.30;;;;;;;9.04;60.41;98421.63;5161581;27;20168;-53
2023/03/12 00:25:53;;;;;;;2.40;2.07;;;;;;;8.97;58.77;98401.94;5161601;27;20168;-52
2023/03/12 00:28:22;;;;;;;4.00;2.10;;;;;;;8.95;55.55;98417.31;5161550;27;20200;-53
2023/03/12 00:30:50;;;;;;;3.10;2.10;;;;;;;8.93;56.54;98413.84;5161580;27;20158;-54
2023/03/12 00:33:17;;;;;;;2.03;1.93;;;;;;;8.98;57.45;98411.34;5161627;27;20221;-53
2023/03/12 00:35:45;;;;;;;2.13;1.97;;;;;;;8.96;60.19;98405.31;5161531;27;20211;-53
2023/03/12 00:38:12;;;;;;;3.27;2.43;;;;;;;8.71;60.50;98394.09;5161553;27;20164;-53
2023/03/12 00:40:38;;;;;;;3.63;2.10;;;;;;;8.69;59.66;98401.78;5161363;27;20248;-54
2023/03/12 00:43:05;;;;;;;3.13;2.20;;;;;;;8.68;59.07;98406.91;5161425;27;20196;-54
2023/03/12 00:45:33;;;;;;;2.20;2.00;;;;;;;8.63;59.51;98416.22;5161404;27;20157;-53
2023/03/12 00:48:00;;;;;;;3.60;2.07;;;;;;;8.59;59.83;98414.50;5161299;27;20154;-53
2023/03/12 00:50:27;;;;;;;3.42;2.78;;;;;;;8.47;60.50;98411.84;5160713;27;20405;-54
2023/03/12 00:52:53;;;;;;;4.70;2.33;;;;;;;8.54;60.03;98403.41;5161275;27;20179;-54
2023/03/12 00:55:21;;;;;;;4.07;2.50;;;;;;;8.52;59.26;98405.06;5160826;27;20393;-54
2023/03/12 00:57:48;;;;;;;4.00;2.30;;;;;;;8.44;58.40;98407.59;5161215;27;20210;-53
2023/03/12 01:00:15;;;;;;;5.70;2.87;;;;;;;8.38;57.74;98415.22;5161263;27;20191;-52
2023/03/12 01:02:44;;;;;;;2.80;2.60;;;;;;;8.34;56.90;98421.16;5161342;27;20164;-53
2023/03/12 01:05:12;;;;;;;6.07;2.93;;;;;;;8.17;56.23;98397.09;5161298;27;20158;-53
2023/03/12 01:07:39;;;;;;;2.60;2.27;;;;;;;8.28;55.69;98421.97;5143389;27;20175;-54
2023/03/12 01:10:07;;;;;;;2.17;1.97;;;;;;;8.31;55.74;98428.81;5140506;28;20158;-54
2023/03/12 01:12:34;;;;;;;3.10;2.80;;;;;;;8.30;55.98;98435.63;5139907;28;20416;-53
2023/03/12 01:15:01;;;;;;;3.03;2.60;;;;;;;8.27;54.99;98434.72;5140403;28;20154;-53
2023/03/12 01:17:28;;;;;;;7.47;3.00;;;;;;;8.26;54.11;98443.25;5140455;28;20165;-53
2023/03/12 01:19:56;;;;;;;4.73;2.53;;;;;;;8.27;53.72;98430.47;5140357;28;20155;-53
2023/03/12 01:22:23;;;;;;;3.87;2.67;;;;;;;8.15;52.64;98419.28;5140024;28;20192;-53
2023/03/12 01:24:50;;;;;;;5.90;2.85;;;;;;;8.13;52.77;98437.16;5140073;28;20471;-52
2023/03/12 01:27:17;;;;;;;5.23;2.80;;;;;;;8.13;51.91;98438.88;5140189;28;20182;-52
2023/03/12 01:29:43;;;;;;;4.77;2.70;;;;;;;8.08;52.14;98449.03;5140434;28;20161;-52
2023/03/12 01:32:10;;;;;;;5.00;2.50;;;;;;;7.99;52.22;98445.56;5140363;28;20164;-52
2023/03/12 01:34:37;;;;;;;2.93;2.63;;;;;;;7.92;52.40;98447.19;5140355;28;20165;-52
2023/03/12 01:37:06;;;;;;;4.97;2.70;;;;;;;7.94;52.37;98454.88;5140372;28;20163;-53
2023/03/12 01:39:33;;;;;;;5.73;2.73;;;;;;;7.83;51.77;98454.75;5140369;28;20155;-53
2023/03/12 01:42:00;;;;;;;3.10;2.80;;;;;;;7.84;51.77;98478.63;5140034;28;20190;-54
2023/03/12 01:44:27;;;;;;;5.53;3.17;;;;;;;7.67;51.86;98440.09;5140250;28;20178;-53
2023/03/12 01:46:54;;;;;;;5.07;2.80;;;;;;;7.76;52.28;98477.69;5140338;28;20161;-53
2023/03/12 01:49:24;;;;;;;4.73;3.30;;;;;;;7.64;52.35;98474.16;5140303;28;20165;-53
2023/03/12 01:51:57;;;;;;;4.50;3.10;;;;;;;7.61;52.71;98488.59;5140240;28;20154;-53
2023/03/12 01:54:30;;;;;;;3.90;2.90;;;;;;;7.52;52.69;98481.72;5140387;28;20156;-52
2023/03/12 01:56:57;;;;;;;4.07;2.97;;;;;;;7.61;52.15;98507.34;5140209;28;20179;-53
2023/03/12 01:59:29;;;;;;;7.07;3.70;;;;;;;7.57;51.71;98512.41;5140141;28;20180;-53
2023/03/12 02:01:55;;;;;;;5.22;3.47;;;;;;;7.53;51.48;98508.97;5139584;28;20434;-52
2023/03/12 02:04:26;;;;;;;4.40;3.37;;;;;;;7.49;51.52;98525.13;5140110;28;20168;-53
2023/03/12 02:07:00;;;;;;;7.55;4.13;;;;;;;7.42;51.29;98533.53;5139689;28;20394;-53
2023/03/12 02:09:29;;;;;;;4.53;3.73;;;;;;;7.36;51.80;98523.22;5140208;28;20150;-53
2023/03/12 02:11:56;;;;;;;9.00;4.53;;;;;;;7.38;51.09;98534.34;5140074;28;20159;-54
2023/03/12 02:14:23;;;;;;;7.93;3.83;;;;;;;7.35;52.15;98534.28;5140030;28;20230;-53
2023/03/12 02:16:50;;;;;;;5.57;3.60;;;;;;;7.38;51.50;98543.69;5139998;28;20158;-53
2023/03/12 02:19:24;;;;;;;5.43;4.50;;;;;;;7.39;51.49;98555.63;5139815;28;20158;-52
2023/03/12 02:21:51;;;;;;;4.67;4.27;;;;;;;7.30;51.52;98547.84;5139913;28;20181;-52
2023/03/12 02:24:26;;;;;;;6.77;4.53;;;;;;;7.32;51.47;98575.13;5139834;28;20234;-53
2023/03/12 02:26:55;;;;;;;4.80;3.90;;;;;;;7.25;51.13;98557.13;5139640;28;20195;-53
2023/03/12 02:29:24;;;;;;;8.43;4.57;;;;;;;7.27;50.78;98571.66;5139891;28;20150;-51
2023/03/12 02:31:54;;;;;;;6.93;4.60;;;;;;;7.21;51.08;98565.59;5139877;28;20160;-52
2023/03/12 02:34:21;;;;;;;4.50;4.10;;;;;;;7.22;50.38;98572.41;5139714;28;20182;-54
2023/03/12 02:36:48;;;;;;;4.97;4.43;;;;;;;7.14;50.57;98585.09;5143310;28;20154;-52
2023/03/12 02:39:15;;;;;;;4.63;4.27;;;;;;;7.14;50.14;98590.19;5143390;28;20158;-53
2023/03/12 02:41:46;;;;;;;7.13;4.40;;;;;;;7.08;50.78;98582.44;5143286;28;20198;-53
2023/03/12 02:44:18;;;;;;;8.30;4.57;;;;;;;7.07;50.92;98583.25;5143296;28;20150;-51
2023/03/12 02:46:46;;;;;;;8.90;4.97;;;;;;;7.02;50.48;98590.84;5143114;28;20155;-51
2023/03/12 02:49:14;;;;;;;6.60;4.83;;;;;;;7.02;50.60;98595.97;5143179;28;20158;-53
2023/03/12 02:51:41;;;;;;;6.33;4.90;;;;;;;7.02;50.12;98606.19;5143129;28;20164;-53
2023/03/12 02:54:09;;;;;;;6.10;4.77;;;;;;;6.81;50.50;98561.59;5143189;28;20157;-52
2023/03/12 02:56:36;;;;;;;5.53;4.50;;;;;;;7.00;49.86;98599.34;5143093;27;20190;-52
2023/03/12 02:59:03;;;;;;;6.30;5.60;;;;;;;6.98;50.76;98608.63;5142041;28;20450;-53
2023/03/12 03:01:32;;;;;;;12.33;5.30;;;;;;;6.99;49.90;98608.69;5142826;28;20194;-52
2023/03/12 03:04:00;;;;;;;5.30;4.67;;;;;;;6.89;50.38;98603.41;5142947;28;20166;-53
2023/03/12 03:06:27;;;;;;;5.00;4.50;;;;;;;6.84;50.75;98608.41;5142936;28;20184;-52
2023/03/12 03:08:54;;;;;;;5.17;4.67;;;;;;;6.87;50.35;98631.44;5142845;28;20188;-53
2023/03/12 03:11:23;;;;;;;5.57;4.40;;;;;;;6.82;50.00;98625.41;5142819;28;20170;-52
2023/03/12 03:13:49;;;;;;;7.27;5.30;;;;;;;6.80;49.64;98616.88;5142893;28;20247;-53
2023/03/12 03:16:16;;;;;;;5.03;4.50;;;;;;;6.78;50.60;98640.66;5142716;28;20190;-53
2023/03/12 03:18:44;;;;;;;6.97;4.93;;;;;;;6.80;50.53;98649.19;5142733;28;20154;-53
2023/03/12 03:21:15;;;;;;;10.50;4.87;;;;;;;6.73;50.41;98642.28;5142513;28;20193;-53
2023/03/12 03:23:42;;;;;;;8.63;4.63;;;;;;;6.70;50.87;98648.19;5142498;28;20154;-53
2023/03/12 03:26:10;;;;;;;7.47;5.13;;;;;;;6.63;50.33;98650.59;5142574;28;20158;-53
2023/03/12 03:28:37;;;;;;;6.80;5.17;;;;;;;6.61;50.48;98642.91;5142443;28;20185;-53
2023/03/12 03:31:04;;;;;;;6.47;5.73;;;;;;;6.65;50.35;98654.03;5142609;28;20157;-53
2023/03/12 03:33:33;;;;;;;7.50;4.47;;;;;;;6.56;50.54;98653.88;5142585;28;20184;-52
2023/03/12 03:36:01;;;;;;;6.70;4.97;;;;;;;6.59;51.14;98664.13;5141884;28;20395;-53
2023/03/12 03:38:29;;;;;;;5.83;5.33;;;;;;;6.60;50.48;98670.94;5142384;28;20162;-53
2023/03/12 03:40:56;;;;;;;5.27;4.77;;;;;;;6.30;50.04;98615.97;5142296;28;20168;-52
2023/03/12 03:43:24;;;;;;;7.10;4.87;;;;;;;6.57;50.04;98671.75;5142317;28;20161;-52
2023/03/12 03:45:57;;;;;;;5.37;4.73;;;;;;;6.52;50.55;98679.31;5142198;28;20171;-53
2023/03/12 03:48:24;;;;;;;4.83;4.40;;;;;;;6.45;50.19;98672.41;5142299;28;20148;-51
2023/03/12 03:50:51;;;;;;;6.20;4.43;;;;;;;6.50;49.93;98681.00;5142191;28;20216;-52
2023/03/12 03:53:20;;;;;;;5.50;4.95;;;;;;;6.46;50.23;98699.63;5141934;28;20409;-51
2023/03/12 03:55:47;;;;;;;8.13;4.60;;;;;;;6.26;49.71;98659.25;5142087;28;20156;-53
2023/03/12 03:58:14;;;;;;;5.53;4.60;;;;;;;6.51;49.29;98685.25;5142088;28;20155;-53
2023/03/12 04:00:43;;;;;;;4.90;4.43;;;;;;;6.43;49.63;98688.47;5141863;28;20180;-52
2023/03/12 04:03:10;;;;;;;5.17;4.40;;;;;;;6.47;49.40;98701.34;5141676;28;20254;-53
2023/03/12 04:05:37;;;;;;;5.17;4.07;;;;;;;6.40;49.68;98694.38;5141623;28;20155;-52
2023/03/12 04:08:04;;;;;;;5.90;5.10;;;;;;;6.43;49.82;98693.56;5141691;28;20155;-52
2023/03/12 04:10:33;;;;;;;5.43;4.00;;;;;;;6.43;49.50;98698.69;5141575;28;20174;-52
2023/03/12 04:12:59;;;;;;;4.07;3.77;;;;;;;6.45;48.56;98700.47;5141543;28;20174;-53
2023/03/12 04:15:26;;;;;;;3.93;3.50;;;;;;;6.42;49.07;98720.81;5141474;28;20157;-53
2023/03/12 04:17:53;;;;;;;4.68;4.28;;;;;;;6.49;48.71;98717.53;5140759;28;20435;-53
2023/03/12 04:20:20;;;;;;;4.57;4.17;;;;;;;6.53;48.74;98718.47;5141420;28;20162;-53
2023/03/12 04:22:47;;;;;;;4.07;3.77;;;;;;;6.57;48.46;98711.72;5141230;28;20189;-52
2023/03/12 04:25:13;;;;;;;4.77;3.30;;;;;;;6.63;47.70;98722.03;5141269;28;20154;-53
2023/03/12 04:27:41;;;;;;;5.10;3.60;;;;;;;6.58;48.25;98718.53;5140994;28;20197;-52
2023/03/12 04:30:09;;;;;;;3.93;3.60;;;;;;;6.60;47.95;98727.06;5141130;28;20160;-52
2023/03/12 04:32:36;;;;;;;4.30;3.90;;;;;;;6.62;47.68;98733.09;5140086;28;20403;-53
2023/03/12 04:35:03;;;;;;;5.97;3.80;;;;;;;6.67;47.51;98729.81;5141135;28;20158;-52
2023/03/12 04:37:33;;;;;;;4.38;3.92;;;;;;;6.65;46.60;98713.56;5140083;28;20403;-52
2023/03/12 04:40:00;;;;;;;3.67;3.37;;;;;;;6.72;46.60;98720.53;5140997;28;20166;-52
2023/03/12 04:42:27;;;;;;;3.57;3.27;;;;;;;6.65;46.64;98728.88;5140918;28;20186;-51
2023/03/12 04:44:55;;;;;;;3.30;3.00;;;;;;;6.64;46.99;98739.94;5140889;28;20154;-52
2023/03/12 04:47:22;;;;;;;4.10;3.80;;;;;;;6.59;46.73;98756.00;5140874;28;20156;-52
2023/03/12 04:49:49;;;;;;;7.80;4.00;;;;;;;6.61;47.38;98762.84;5140822;28;20168;-53
2023/03/12 04:52:17;;;;;;;6.47;3.33;;;;;;;6.65;46.72;98751.84;5140773;28;20162;-52
2023/03/12 04:54:44;;;;;;;5.10;3.37;;;;;;;6.65;47.10;98766.34;5140777;28;20183;-53
2023/03/12 04:57:10;;;;;;;6.63;3.40;;;;;;;6.65;46.96;98761.22;5140538;28;20154;-53
2023/03/12 04:59:37;;;;;;;3.43;3.13;;;;;;;6.69;46.48;98768.97;5140482;28;20159;-52
2023/03/12 05:02:05;;;;;;;3.60;3.30;;;;;;;6.69;47.33;98770.66;5140617;28;20189;-53
2023/03/12 05:04:32;;;;;;;5.60;3.57;;;;;;;6.66;47.15;98774.00;5140601;28;20154;-54
2023/03/12 05:06:59;;;;;;;3.80;3.50;;;;;;;6.73;47.34;98777.56;5140613;28;20162;-53
2023/03/12 05:09:26;;;;;;;3.20;2.97;;;;;;;6.71;46.62;98779.19;5140522;28;20152;-52
2023/03/12 05:11:53;;;;;;;5.13;3.73;;;;;;;6.64;47.11;98790.13;5140476;28;20161;-53
2023/03/12 05:14:19;;;;;;;6.00;3.20;;;;;;;6.65;46.33;98800.34;5140487;28;20166;-52
2023/03/12 05:16:47;;;;;;;3.00;2.80;;;;;;;6.63;46.96;98794.38;5140363;28;20156;-52
2023/03/12 05:19:15;;;;;;;4.03;3.73;;;;;;;6.71;45.82;98807.28;5140426;28;20164;-52
2023/03/12 05:21:42;;;;;;;3.63;3.33;;;;;;;6.74;46.04;98817.53;5140348;28;20183;-51
2023/03/12 05:24:10;;;;;;;3.50;3.20;;;;;;;6.75;45.86;98809.06;5140379;28;20167;-54
2023/03/12 05:26:38;;;;;;;3.50;3.20;;;;;;;6.74;45.93;98815.00;5140072;28;20183;-52
2023/03/12 05:29:05;;;;;;;5.63;3.50;;;;;;;6.74;46.47;98815.88;5140229;28;20153;-51
2023/03/12 05:31:34;;;;;;;5.93;3.77;;;;;;;6.79;46.52;98828.72;5140169;28;20217;-52
2023/03/12 05:34:01;;;;;;;5.13;3.10;;;;;;;6.82;45.78;98816.00;5139966;28;20177;-53
2023/03/12 05:36:29;;;;;;;3.33;3.03;;;;;;;6.77;45.78;98823.59;5140273;28;20216;-52
2023/03/12 05:38:56;;;;;;;3.33;3.00;;;;;;;6.84;46.37;98827.13;5140162;28;20221;-53
2023/03/12 05:41:26;;;;;;;3.53;3.23;;;;;;;6.75;46.49;98837.16;5140142;28;20182;-53
2023/03/12 05:43:55;;;;;;;5.83;3.40;;;;;;;6.84;45.44;98816.94;5140047;28;20210;-55
2023/03/12 05:46:22;;;;;;;3.93;2.93;;;;;;;6.74;45.53;98822.66;5140086;28;20225;-53
2023/03/12 05:48:49;;;;;;;5.70;3.10;;;;;;;6.98;45.77;98835.91;5139908;28;20150;-52
2023/03/12 05:51:16;;;;;;;3.00;2.77;;;;;;;7.02;44.96;98845.38;5140064;28;20157;-53
2023/03/12 05:53:44;;;;;;;4.97;3.37;;;;;;;7.05;45.73;98841.19;5139883;28;20158;-52
2023/03/12 05:56:14;;;;;;;2.93;2.53;;;;;;;7.08;44.53;98859.13;5139906;28;20153;-54
2023/03/12 05:58:41;;;;;;;3.73;2.90;;;;;;;7.17;45.01;98848.19;5139890;28;20157;-53
2023/03/12 06:01:12;;;;;;;3.60;3.30;;;;;;;7.35;44.50;98860.47;5139954;28;20170;-52
2023/03/12 06:03:41;;;;;;;2.97;2.77;;;;;;;7.35;44.76;98861.34;5139929;28;20184;-51
2023/03/12 06:06:08;;;;;;;4.00;2.83;;;;;;;7.31;45.03;98864.66;5139926;28;20155;-55
2023/03/12 06:08:35;;;;;;;2.97;2.40;;;;;;;7.25;45.16;98877.31;5139878;28;20158;-53
2023/03/12 06:11:03;;;;;;;3.13;2.83;;;;;;;7.34;45.33;98879.19;5142493;28;20168;-52
2023/03/12 06:13:30;;;;;;;5.67;3.00;;;;;;;7.43;45.07;98882.78;5143808;28;20173;-53
2023/03/12 06:16:03;;;;;;;3.27;2.97;;;;;;;7.43;45.75;98885.34;5143786;28;20169;-52
2023/03/12 06:18:30;;;;;;;3.27;2.97;;;;;;;7.38;45.23;98894.63;5143866;28;20221;-52
2023/03/12 06:21:08;;;;;;;4.20;3.53;;;;;;;7.37;44.63;98884.34;5143511;28;20175;-52
2023/03/12 06:23:34;;;;;;;3.13;2.60;;;;;;;7.40;44.84;98907.41;5142912;28;20192;-53
2023/03/12 06:26:03;;;;;;;2.93;2.63;;;;;;;7.36;45.12;98916.69;5144031;28;20225;-52
2023/03/12 06:28:30;;;;;;;4.00;2.87;;;;;;;7.47;44.74;98904.16;5156141;27;20220;-53
2023/03/12 06:30:57;;;;;;;3.33;2.97;;;;;;;7.54;44.72;98914.50;5161367;27;20180;-54
2023/03/12 06:33:24;;;;;;;3.13;2.83;;;;;;;7.46;44.08;98882.84;5145329;27;20182;-54
2023/03/12 06:35:54;;;;;;;2.80;2.60;;;;;;;7.63;42.33;98922.38;5152646;27;20189;-54
2023/03/12 06:38:20;;;;;;;2.53;2.33;;;;;;;7.63;42.23;98911.28;5143644;28;20167;-53
2023/03/12 06:40:55;;;;;;;6.60;2.93;;;;;;;7.70;41.22;98947.19;5143875;27;20162;-53
2023/03/12 06:43:24;;;;;;;5.43;2.70;;;;;;;7.72;40.62;98931.88;5142790;28;20212;-53
2023/03/12 06:45:50;;;;;;;2.10;2.00;;;;;;;7.67;40.41;98956.50;5142926;28;20170;-53
2023/03/12 06:48:17;;;;;;;2.10;2.00;;;;;;;7.71;40.58;98948.94;5142563;28;20249;-52
2023/03/12 06:50:44;;;;;;;9.33;2.40;;;;;;;7.71;40.21;98942.94;5143008;28;20154;-53
2023/03/12 06:53:11;;;;;;;1.90;1.77;;;;;;;7.66;39.10;98954.78;5142913;28;20168;-53
2023/03/12 06:55:38;;;;;;;3.17;2.20;;;;;;;7.76;39.42;98956.69;5142789;28;20158;-53
2023/03/12 06:58:05;;;;;;;2.47;2.10;;;;;;;7.82;38.83;98966.16;5142645;28;20184;-52
2023/03/12 07:00:33;;;;;;;3.60;2.30;;;;;;;7.88;39.33;98961.16;5147010;27;20182;-54
2023/03/12 07:03:00;;;;;;;2.20;2.00;;;;;;;7.99;39.25;98969.88;5162516;27;20258;-53
2023/03/12 07:05:27;;;;;;;3.87;2.30;;;;;;;8.18;39.39;98972.81;5163227;27;20157;-53
2023/03/12 07:07:54;;;;;;;3.03;1.80;;;;;;;8.14;38.90;98970.13;5142401;28;20163;-52
2023/03/12 07:10:22;;;;;;;3.07;2.70;;;;;;;8.21;38.83;98988.19;5142190;28;20158;-53
2023/03/12 07:12:49;;;;;;;3.40;2.00;;;;;;;8.24;38.41;98987.41;5160554;27;20190;-54
2023/03/12 07:15:16;;;;;;;2.53;2.00;;;;;;;8.30;38.58;98979.81;5162819;27;20157;-51
2023/03/12 07:17:44;;;;;;;2.10;2.00;;;;;;;8.42;38.04;98992.84;5162669;27;20221;-52
2023/03/12 07:20:12;;;;;;;2.40;2.03;;;;;;;8.45;38.10;98992.91;5162634;27;20191;-52
2023/03/12 07:22:38;;;;;;;4.23;2.20;;;;;;;8.53;38.24;98986.19;5162328;27;20187;-51
2023/03/12 07:25:06;;;;;;;4.60;2.47;;;;;;;8.51;38.21;98972.53;5162505;27;20154;-52
2023/03/12 07:27:33;;;;;;;1.97;1.87;;;;;;;8.69;38.01;98977.06;5162585;27;20190;-52
2023/03/12 07:29:59;;;;;;;3.57;2.20;;;;;;;8.67;37.77;98981.28;5162523;27;20183;-53
2023/03/12 07:32:26;;;;;;;3.03;1.97;;;;;;;8.62;36.70;98972.69;5162791;27;20157;-53
2023/03/12 07:34:54;;;;;;;1.93;1.83;;;;;;;8.71;37.04;98971.13;5162800;27;20150;-53
2023/03/12 07:37:22;;;;;;;2.57;2.37;;;;;;;8.92;36.35;98974.84;5163247;27;20166;-53
2023/03/12 07:39:51;;;;;;;3.53;2.00;;;;;;;8.95;35.83;98980.88;5163243;27;20166;-53
2023/03/12 07:42:18;;;;;;;2.47;1.87;;;;;;;8.94;35.29;98955.22;5163137;27;20150;-54
2023/03/12 07:44:45;;;;;;;2.30;2.10;;;;;;;8.89;35.63;98956.03;5162312;27;20393;-53
2023/03/12 07:47:12;;;;;;;1.90;1.80;;;;;;;8.89;35.09;98952.59;5162888;27;20190;-53
2023/03/12 07:49:40;;;;;;;3.00;1.83;;;;;;;8.75;35.44;98967.78;5162916;27;20189;-53
2023/03/12 07:52:10;;;;;;;2.03;1.93;;;;;;;8.70;35.62;98946.38;5162957;27;20150;-53
2023/03/12 07:54:38;;;;;;;1.93;1.83;;;;;;;8.96;35.48;98967.22;5147625;27;20183;-54
2023/03/12 07:57:05;;;;;;;3.22;2.17;;;;;;;9.04;35.54;98990.41;5141325;28;20398;-52
2023/03/12 07:59:32;;;;;;;2.70;1.97;;;;;;;9.15;35.75;98964.06;5141445;28;20161;-54
2023/03/12 08:01:59;;;;;;;2.20;2.00;;;;;;;9.23;35.30;98977.81;5141368;28;20176;-54
2023/03/12 08:04:25;;;;;;;3.00;2.70;;;;;;;9.19;35.50;99004.28;5141214;28;20190;-54
2023/03/12 08:06:52;;;;;;;2.10;2.00;;;;;;;9.18;35.92;98982.03;5141199;28;20158;-54
2023/03/12 08:09:20;;;;;;;2.67;2.07;;;;;;;9.40;35.67;98991.72;5141323;28;20176;-53
2023/03/12 08:11:47;;;;;;;2.87;2.13;;;;;;;9.47;35.71;98992.69;5141232;28;20184;-54
2023/03/12 08:14:14;;;;;;;2.17;1.93;;;;;;;9.49;34.96;99014.06;5150760;27;20241;-53
2023/03/12 08:16:41;;;;;;;3.00;2.60;;;;;;;9.48;34.65;99010.63;5161717;27;20185;-52
2023/03/12 08:19:07;;;;;;;4.93;2.37;;;;;;;9.56;34.29;99015.00;5161496;27;20154;-52
2023/03/12 08:21:34;;;;;;;2.00;1.80;;;;;;;9.51;34.29;99014.94;5161872;27;20156;-52
2023/03/12 08:24:01;;;;;;;2.70;2.50;;;;;;;9.59;34.39;99007.31;5161692;27;20198;-52
2023/03/12 08:26:30;;;;;;;1.77;1.67;;;;;;;9.65;34.67;98995.47;5158411;27;20172;-53
2023/03/12 08:28:59;;;;;;;3.80;2.20;;;;;;;9.63;34.57;98989.44;5155548;27;20178;-52
2023/03/12 08:31:26;;;;;;;2.33;2.13;;;;;;;9.74;34.01;98982.75;5161240;27;20157;-53
2023/03/12 08:33:52;;;;;;;2.43;2.23;;;;;;;9.60;34.31;98970.59;5158051;27;20181;-54
2023/03/12 08:36:19;;;;;;;3.27;2.47;;;;;;;9.59;34.37;98956.03;5152061;27;20166;-55
2023/03/12 08:38:46;;;;;;;2.13;1.93;;;;;;;9.72;35.13;98942.53;5150393;27;20174;-53
2023/03/12 08:41:13;;;;;;;4.30;2.47;;;;;;;10.03;34.86;98954.81;5140653;28;20155;-53
2023/03/12 08:43:41;;;;;;;2.10;2.00;;;;;;;9.94;34.85;98962.44;5140695;28;20178;-53
2023/03/12 08:46:08;;;;;;;4.70;2.43;;;;;;;9.91;33.90;98954.72;5143247;27;20162;-55
2023/03/12 08:48:34;;;;;;;7.87;2.20;;;;;;;9.99;33.23;98986.44;5157089;27;20169;-53
2023/03/12 08:51:03;;;;;;;5.10;2.67;;;;;;;9.83;33.69;98961.47;5160925;27;20222;-55
2023/03/12 08:53:31;;;;;;;4.20;2.53;;;;;;;9.80;34.07;98972.56;5160294;27;20435;-53
2023/03/12 08:55:57;;;;;;;2.70;1.80;;;;;;;9.96;32.10;98979.56;5160384;27;20249;-54
2023/03/12 08:58:26;;;;;;;3.70;1.80;;;;;;;9.83;31.20;99008.47;5160830;27;20404;-53
2023/03/12 09:00:55;;;;;;;2.43;1.83;;;;;;;9.71;31.24;99021.19;5160821;27;20173;-54
2023/03/12 09:03:22;;;;;;;1.67;1.57;;;;;;;9.86;31.38;99013.66;5160851;27;20205;-54
2023/03/12 09:05:51;;;;;;;2.10;2.00;;;;;;;9.63;31.88;98971.50;5151400;27;20173;-54
2023/03/12 09:08:18;;;;;;;3.53;2.30;;;;;;;9.90;31.35;99010.28;5140289;28;20150;-54
2023/03/12 09:10:48;;;;;;;2.53;1.90;;;;;;;9.87;32.19;99015.38;5139863;28;20429;-53
2023/03/12 09:13:15;;;;;;;3.30;2.33;;;;;;;10.02;32.41;98992.47;5140337;28;20158;-53
2023/03/12 09:15:42;;;;;;;3.10;2.60;;;;;;;10.13;33.06;98995.16;5140090;28;20166;-53
2023/03/12 09:18:10;;;;;;;2.10;1.90;;;;;;;10.09;33.50;98996.81;5139992;28;20214;-53
2023/03/12 09:20:37;;;;;;;6.30;2.20;;;;;;;10.30;33.23;98991.03;5156378;27;20194;-54
2023/03/12 09:23:03;;;;;;;4.53;2.10;;;;;;;10.28;31.96;98986.72;5160415;27;20200;-53
2023/03/12 09:25:30;;;;;;;2.30;2.07;;;;;;;10.32;31.76;99004.78;5160323;27;20229;-54
2023/03/12 09:27:57;;;;;;;2.67;2.03;;;;;;;10.27;31.97;98992.72;5160173;27;20181;-53
2023/03/12 09:30:25;;;;;;;2.67;2.47;;;;;;;10.22;32.55;98976.44;5160192;27;20161;-54
2023/03/12 09:32:53;;;;;;;2.63;2.53;;;;;;;10.35;31.89;98979.13;5160292;27;20194;-54
2023/03/12 09:35:21;;;;;;;3.40;2.40;;;;;;;10.51;31.98;98985.22;5159969;27;20396;-55
2023/03/12 09:37:50;;;;;;;2.77;2.33;;;;;;;10.60;32.88;98999.00;5160396;27;20199;-53
2023/03/12 09:40:19;;;;;;;3.87;1.90;;;;;;;10.54;32.29;98990.41;5160432;27;20166;-54
2023/03/12 09:42:50;;;;;;;2.40;2.20;;;;;;;10.50;32.93;98991.22;5160286;27;20168;-53
2023/03/12 09:45:22;;;;;;;7.47;2.33;;;;;;;10.60;32.14;99003.31;5163850;27;20150;-52
2023/03/12 09:47:51;;;;;;;3.87;3.23;;;;;;;10.59;32.54;98983.59;5164448;27;20150;-53
2023/03/12 09:50:26;;;;;;;3.20;2.90;;;;;;;10.69;32.55;99005.91;5164445;27;20165;-53
2023/03/12 09:52:59;;;;;;;4.57;3.20;;;;;;;10.95;32.74;99040.41;5164559;27;20075;-52
2023/03/12 09:55:28;;;;;;;3.97;3.00;;;;;;;10.92;31.58;99027.53;5164550;27;20154;-53
2023/03/12 09:57:56;;;;;;;2.77;2.27;;;;;;;10.90;31.85;99016.38;5164278;27;20154;-53
2023/03/12 10:00:29;;;;;;;3.60;2.33;;;;;;;10.83;32.54;99013.72;5164016;27;20201;-53
2023/03/12 10:03:21;;;;;;;3.83;2.33;;;;;;;10.81;32.59;99016.31;5164157;27;20182;-54
2023/03/12 10:06:03;;;;;;;2.60;2.40;;;;;;;11.04;32.69;99021.63;5163805;27;20222;-53
2023/03/12 10:08:36;;;;;;;2.20;2.10;;;;;;;10.99;32.38;98995.84;5163696;27;20150;-53
2023/03/12 10:11:10;;;;;;;4.67;2.47;;;;;;;10.81;31.50;99018.88;5163164;27;20162;-53
2023/03/12 10:13:52;;;;;;;2.80;2.40;;;;;;;10.81;32.54;99025.72;5157682;27;20215;-53
2023/03/12 10:16:32;;;;;;;3.20;2.90;;;;;;;10.64;32.82;99036.72;5154077;27;20187;-53
2023/03/12 10:19:13;;;;;;;5.10;2.97;;;;;;;10.86;32.96;99027.47;5163409;27;20179;-53
2023/03/12 10:21:50;;;;;;;3.20;2.47;;;;;;;10.93;31.76;99033.53;5163321;27;20150;-53
2023/03/12 10:24:30;;;;;;;3.15;2.45;;;;;;;10.86;32.33;98993.19;5162429;27;20440;-53
2023/03/12 10:27:00;;;;;;;3.27;2.70;;;;;;;11.14;33.07;99020.81;5162800;27;20189;-53
2023/03/12 10:29:29;;;;;;;3.38;2.80;;;;;;;11.11;33.48;99021.66;5162739;27;20461;-54
2023/03/12 10:32:02;;;;;;;2.73;2.53;;;;;;;11.20;32.49;99041.44;5162614;27;20146;-54
2023/03/12 10:34:34;;;;;;;4.37;3.30;;;;;;;11.26;33.58;99036.34;5163177;27;20178;-52
2023/03/12 10:37:07;;;;;;;3.77;2.70;;;;;;;11.40;33.35;99039.81;5163659;27;20191;-53
2023/03/12 10:39:34;;;;;;;5.10;2.73;;;;;;;11.31;32.94;99028.63;5163380;27;20199;-53
2023/03/12 10:42:01;;;;;;;3.88;3.47;;;;;;;11.44;33.18;99036.44;5163190;27;20397;-53
2023/03/12 10:44:29;;;;;;;3.00;2.70;;;;;;;11.69;32.14;99034.88;5163336;27;20185;-54
2023/03/12 10:47:24;;;;;;;3.30;2.63;;;;;;;11.58;31.90;99042.50;5163340;27;20164;-54
2023/03/12 10:49:52;;;;;;;3.07;2.70;;;;;;;11.32;32.73;99041.50;5163290;27;20150;-53
2023/03/12 10:52:21;;;;;;;3.47;3.17;;;;;;;11.18;33.43;99061.97;5163171;27;20154;-53
2023/03/12 10:54:50;;;;;;;3.60;3.00;;;;;;;10.99;33.28;99031.84;5162820;27;20157;-53
2023/03/12 10:57:17;;;;;;;3.87;3.40;;;;;;;11.32;32.93;99027.78;5161974;27;20154;-53
2023/03/12 10:59:46;;;;;;;3.63;2.93;;;;;;;11.40;33.18;99019.25;5162743;27;20164;-53
2023/03/12 11:02:29;;;;;;;3.27;2.90;;;;;;;11.54;33.40;99006.44;5162942;27;20165;-53
2023/03/12 11:04:57;;;;;;;2.80;2.60;;;;;;;11.50;32.84;99021.03;5163026;27;20187;-52
2023/03/12 11:07:28;;;;;;;4.32;2.85;;;;;;;11.68;32.57;99017.66;5161650;27;20409;-53
2023/03/12 11:10:20;;;;;;;3.00;2.80;;;;;;;11.81;31.87;99028.03;5162850;27;20151;-51
2023/03/12 11:13:03;;;;;;;2.83;2.63;;;;;;;11.83;31.51;99033.22;5162656;27;20162;-54
2023/03/12 11:15:38;;;;;;;3.43;2.73;;;;;;;11.86;31.77;99024.63;5159411;27;20181;-53
2023/03/12 11:18:25;;;;;;;3.23;2.90;;;;;;;12.07;31.73;99025.56;5151423;27;20163;-55
2023/03/12 11:20:55;;;;;;;3.33;2.40;;;;;;;11.93;31.38;99016.06;5150479;27;20196;-55
2023/03/12 11:23:26;;;;;;;4.63;3.27;;;;;;;12.09;31.88;99021.25;5162221;27;20156;-54
2023/03/12 11:25:58;;;;;;;3.50;3.20;;;;;;;12.37;31.78;99014.44;5157791;27;20448;-57
2023/03/12 11:28:35;;;;;;;3.83;3.30;;;;;;;12.09;31.45;98969.75;5141776;28;20182;-53
2023/03/12 11:31:04;;;;;;;5.30;3.20;;;;;;;12.36;31.26;99023.06;5141902;28;20160;-53
2023/03/12 11:33:30;;;;;;;2.70;2.50;;;;;;;12.44;31.45;99021.34;5141454;28;20173;-54
2023/03/12 11:36:08;;;;;;;3.63;3.33;;;;;;;12.29;30.62;99031.63;5141905;28;20155;-54
2023/03/12 11:38:41;;;;;;;3.10;2.83;;;;;;;12.11;31.76;99019.56;5141766;28;20183;-53
2023/03/12 11:41:20;;;;;;;5.27;3.57;;;;;;;12.04;32.18;99027.25;5141280;28;20165;-53
2023/03/12 11:44:04;;;;;;;3.27;2.97;;;;;;;11.91;31.99;99020.34;5150995;27;20177;-54
2023/03/12 11:46:43;;;;;;;3.63;2.60;;;;;;;11.92;30.84;99011.78;5162082;27;20149;-51